Rosedale, IN (47874)

05:43 EDT le 26 avril 2015 (GMT -0400)
GUITAR LAKE | | Change Station
CLOSE
Current Station
Stations météorologiques personnelles
Location: BRAZIL, IN
Altitude: 650 ft
Stations météo à proximité

Alt. 650 ft 39.48 °N, 87.17 °W | Updated 6 seconds ago

Couvert
Couvert
42.6 ° F
Paraît 39 ° F
N
5.4
Vent Variable Vent de Nord
Gusts 9.2 mph

Aujourd'hui
Haut(e) -- | Bas -- ° F
--% Risque de précip.
Hier
Haut(e) -- | Bas -- ° F
Precip. -- pouce
6:56 AM 8:37 PM
Premier quartier, 54% visible
Pression 29.81 pouce
Visibilité 10.0 Miles terrestres
Nuages Peu 4200 ft
Couvert 6500 ft
Refroidissement éolien 39 ° F
Point de rosée 35 ° F
Humidité 73%
Précipitations 0.00 pouce
Profondeur de la couche neigeuse Non disponible.
UV 0 sur 12
Pollen 3.70 sur 12
Qualité de l'air Non disponible.
Flu Activity Local Activity
METAR KHUF 260853Z AUTO 03009KT 10SM FEW042 OVC065 07/01 A2980 RMK AO2 SLP093 T00670011 53016

More Conditions Fewer Conditions

Pression 29.81 pouce
Visibilité 10.0 Miles terrestres
Nuages Peu 4200 ft
Couvert 6500 ft
Refroidissement éolien 39 ° F
Point de rosée 35 ° F
Humidité 73%
Précipitations 0.00 pouce
Profondeur de la couche neigeuse Non disponible.
UV 0 sur 12
Pollen 3.70 sur 12
Qualité de l'air Non disponible.
Flu Activity Local Activity
METAR KHUF 260853Z AUTO 03009KT 10SM FEW042 OVC065 07/01 A2980 RMK AO2 SLP093 T00670011 53016

More Conditions Fewer Conditions

The full scope of the disaster following a powerful 7.8-magnitude earthquake in Nepal may not come into view for days, but global charities are already sending emergency aid. Click to see how you can help.

10-Day Weather Forecast

Almanac

Astronomie

Apr. 26, 2015 Lever Coucher
Temps réel
Crépuscule civil
Crépuscule nautique
Crépuscule astronomique
Lune
Durée de lumière visible
Longueur du jour
Tomorrow will be .
, % of the Moon is Illuminated

Extrêmes aujourd'hui

State Highs State Lows

Community

WunderPhotos

Upload Photos

1,816,952 Photos téléchargées !

WunderBlogs® & News

Nearby

Qualité de l'air

  Qualité de l'air Indice de la qualité de l'air Polluant
Not available.

Épaisseur de neige

Station Depth Altitude

Activité sismique

Ville Distance Mag. Time & Date
Minimum magnitude displayed is 2.5.

Températures des eaux côtières

Lieu Température

Stations

Stations météo à proximité

Emplacement de la station Température Refroidissement éolien Point de rosée Humidité Vent Precip. Alt. Mise à jour Type